Tiempo atmosférico en la estación meteorológica de Palencia, Palencia (736 m.)



Fecha
DESCASC
Temp. máxima en grados centígrados (hora)
DESCASC
Temp. mínima en grados centígrados (hora)
DESCASC
Temp. media en grados centígrados
DESCASC
Racha de viento máxima en m/sg (hora)
DESCASC
Velocidad máxima media en intervalos de 10 minutos(hora)
DESCASC
Precipitaciones diarias en mm
DESCASC
Precipitaciones de 00:00 a 06:00 en mm
DESCASC
Precipitaciones de 06:00 a 12:00 en mm
DESCASC
Precipitaciones de 12:00 a 18:00 en mm
DESCASC
Precipitaciones de 18:00 a 24:00 en mm
DESCASC
05-04-2020 20 (14:40) 6.6 (00:30) 13.3 11.39 (17:10) 6.67 (17:00) 8.6 0 0 0 8.6
04-04-2020 19.8 (16:40) -1.9 (08:00) 8.9 9.72 (19:40) 4.72 (19:20) 0 0 0 0 0
03-04-2020 15.2 (17:50) -2.1 (08:20) 6.5 4.17 (12:10) 2.78 (14:20) 0 0 0 0 0
02-04-2020 11.8 (16:40) 3.7 (00:00) 7.8 9.72 (17:20) 5 (17:20) 1.4 1 0.4 0 0
01-04-2020 13.1 (15:40) 3.7 (00:00) 8.4 8.33 (17:40) 4.72 (17:40) 6.4 3 0 0.6 2.8
31-03-2020 9.4 (17:40) 0.1 (00:00) 4.7 10.83 (13:40) 5.56 (17:50) 1.2 0 0 0 1.2
30-03-2020 6.5 (17:00) 0.7 (00:00) 3.6 10.56 (04:50) 4.72 (11:50) 0 0 0 0 0
29-03-2020 16.9 (16:10) -0.4 (00:00) 8.2 10 (20:30) 5 (20:30) 0 0 0 0 0
28-03-2020 17.3 (16:00) -3.3 (-00:0) 7 5.83 (14:00) 2.5 (14:10) 0 0 0 0 0
27-03-2020 13.9 (15:10) -2.5 (-00:0) 5.7 10 (15:50) 6.39 (15:30) 0 0 0 0 0
26-03-2020 13.4 (15:20) -3.3 (-00:0) 5 7.78 (19:20) 3.89 (21:30) 0 0 0 0 0
25-03-2020 17.8 (16:20) 0.2 (00:00) 9 6.39 (19:10) 3.33 (19:00) 0 0 0 0 0
24-03-2020 17 (15:30) 3.7 (00:00) 10.4 9.17 (14:10) 5.28 (13:10) 0 0 0 0 0
23-03-2020 16 (15:30) 2.4 (00:00) 9.2 8.33 (19:50) 4.17 (13:00) 0 0 0 0 0
22-03-2020 16.4 (14:30) 6.6 (07:40) 11.5 9.17 (16:50) 5 (16:20) 0 0 0 0 0
21-03-2020 15.3 (14:50) 2.6 (00:00) 9 7.5 (11:20) 4.72 (19:20) 3.6 0 0 0 3.6
20-03-2020 17 (16:30) 5.4 (00:00) 11.2 7.5 (18:00) 3.89 (18:20) 0.6 0 0 0 0.6
19-03-2020 17.9 (16:00) 5.5 (00:00) 11.7 6.94 (15:10) 4.44 (14:50) 0 0 0 0 0
18-03-2020 19.6 (16:20) 4.4 (00:00) 12 4.44 (01:10) 2.22 (11:30) 0 0 0 0 0
17-03-2020 12.9 (15:30) 5.8 (00:00) 9.3 11.67 (01:30) 5.28 (00:20) 0 0 0 0 0
16-03-2020 8.3 (14:50) 1.3 (00:00) 4.8 15.56 (15:20) 6.94 (14:30) 7 4.6 2.4 0 0
15-03-2020 20.4 (15:10) -1.5 (-00:0) 9.4 12.78 (17:10) 7.5 (17:10) 0 0 0 0 0
14-03-2020 18.4 (16:30) -2.3 (-00:0) 8 3.61 (02:40) 2.22 (02:40) 0 0 0 0 0
13-03-2020 13.6 (15:10) 4.7 (22:50) 9.2 8.89 (08:30) 3.89 (11:20) 0 0 0 0 0
12-03-2020 19.2 (13:50) 7 (00:00) 13.1 8.06 (20:20) 3.61 (19:00) 0 0 0 0 0
11-03-2020 23.9 (16:10) 1.2 (00:00) 12.5 6.11 (16:50) 3.89 (17:20) 0 0 0 0 0
10-03-2020 20.2 (14:50) 2.4 (00:00) 11.3 6.11 (15:00) 3.89 (15:00) 0 0 0 0 0
09-03-2020 15 (17:10) 2 (00:00) 8.5 10.83 (01:20) 7.22 (01:20) 0 0 0 0 0
08-03-2020 15.4 (16:20) 0.4 (00:00) 7.9 10.83 (22:30) 6.67 (22:40) 0 0 0 0 0

Gráficas

Temp. máximas Temp. mínimas Temp. medias Precipitaciones Rachas de viento máximas Velocidades máximas media en intervalos de 10 minutos

Datos horarios

Fecha y hora oficial Temperatura (ºC) Velocidad del viento (km/h) Dirección del viento Racha (km/h) Dirección de racha Precipitación (mm) Presión (hPa) Tendencia (hPa) Humedad (%)
2020-04-06 23:00:00 10.7 0 Calma 4 Sudoeste 0.6 -- -- 92
2020-04-06 22:00:00 11.1 0 Calma 5 Sudoeste 0 -- -- 89
2020-04-06 21:00:00 11.5 4 Sudoeste 18 Oeste 0.2 -- -- 87
2020-04-06 20:00:00 12.3 11 Oeste 27 Oeste 0 -- -- 81
2020-04-06 19:00:00 13.6 14 Oeste 23 Oeste 0 -- -- 74
2020-04-06 18:00:00 13.4 8 Sudoeste 31 Oeste 0.2 -- -- 84
2020-04-06 17:00:00 14.6 12 Sudoeste 23 Sudoeste 0 -- -- 70
2020-04-06 16:00:00 16 13 Sudoeste 26 Oeste 0 -- -- 68
2020-04-06 15:00:00 16.4 13 Oeste 26 Oeste 0 -- -- 71
2020-04-06 14:00:00 14.7 13 Oeste 23 Oeste 0 -- -- 82
2020-04-06 13:00:00 14 12 Sudoeste 32 Sudoeste 0 -- -- 86
2020-04-06 12:00:00 13.3 17 Sudoeste 31 Oeste 0.2 -- -- 89
2020-04-06 11:00:00 12.2 17 Sudoeste 32 Oeste 0 -- -- 95
2020-04-06 10:00:00 11.8 13 Sudoeste 23 Sudoeste 0.2 -- -- 98
2020-04-06 09:00:00 11.4 6 Sur 19 Sur 0 -- -- 98
2020-04-06 08:00:00 11.1 5 Sur 17 Sur 0 -- -- 98
2020-04-06 07:00:00 11 6 Sur 20 Sudeste 0.2 -- -- 98
2020-04-06 06:00:00 10.9 4 Sur 15 Sudeste 0.2 -- -- 98
2020-04-06 05:00:00 10.8 8 Sudeste 13 Sudeste 0 -- -- 98
2020-04-06 04:00:00 10.8 2 Sudeste 10 Sudeste 0 -- -- 98
2020-04-06 03:00:00 11 5 Sur 9 Sudeste 0 -- -- 97
2020-04-06 02:00:00 11.1 3 Sur 12 Sudeste 0.2 -- -- 97
2020-04-06 01:00:00 11 0 Calma 9 Sudeste 0.4 -- -- 97
2020-04-06 00:00:00 11.1 3 Sudeste 5 Sudeste 3.4 -- -- 97
2020-04-05 23:00:00 11.2 2 Nordeste 11 Noroeste 1.4 -- -- 96
2020-04-05 22:00:00 11.5 7 Noroeste 17 Noroeste 1.6 -- -- 96
2020-04-05 21:00:00 12.2 5 Norte 9 Norte 0.8 -- -- 94
2020-04-05 20:00:00 13.4 5 Noroeste 10 Oeste 0.6 -- -- 90
2020-04-05 19:00:00 13.8 10 Oeste 15 Oeste 0.8 -- -- 86
2020-04-05 18:00:00 15.1 4 Sudoeste 41 Oeste 0 -- -- 77
2020-04-05 17:00:00 15.7 24 Oeste 36 Oeste 0 -- -- 73
2020-04-05 16:00:00 17.9 12 Sudoeste 24 Sudoeste 0 -- -- 57
2020-04-05 15:00:00 19.6 13 Sudoeste 26 Sudoeste 0 -- -- 51
2020-04-05 14:00:00 18.6 14 Sur 29 Sur 0 -- -- 54
2020-04-05 13:00:00 16.6 13 Sudoeste 25 Sudoeste 0 -- -- 59
2020-04-05 12:00:00 14.8 6 Sur 20 Sur 0 -- -- 68
2020-04-05 11:00:00 13.9 8 Sur 22 Sur 0 -- -- 68
2020-04-05 10:00:00 11.5 10 Sudeste 17 Sudeste 0 -- -- 78
2020-04-05 09:00:00 7.4 2 Sudeste 5 Sudeste 0 -- -- 88
2020-04-05 08:00:00 7.6 0 Calma 6 Este 0 -- -- 81
2020-04-05 07:00:00 8.7 0 Calma 8 Sudeste 0 -- -- 81
2020-04-05 06:00:00 8.4 4 Sudeste 6 Sudeste 0 -- -- 81
2020-04-05 05:00:00 8.3 3 Sur 8 Sudoeste 0 -- -- 81
2020-04-05 04:00:00 7.9 2 Sudeste 5 Sudeste 0 -- -- 82
2020-04-05 03:00:00 7.7 0 Calma 5 Sudeste 0 -- -- 80
2020-04-05 02:00:00 8.4 3 Sur 11 Sur 0 -- -- 76
2020-04-05 01:00:00 6.8 3 Sudeste 9 Sur 0 -- -- 78
2020-04-05 00:00:00 7.1 3 Sudoeste 5 Sur 0 -- -- 75
2020-04-04 23:00:00 10.1 0 Calma 8 Sudoeste 0 -- -- 65
2020-04-04 22:00:00 12 4 Sudoeste 15 Sudeste 0 -- -- 57
2020-04-04 21:00:00 13.9 8 Sur 28 Sur 0 -- -- 50
2020-04-04 20:00:00 15.4 13 Sur 35 Sur 0 -- -- 47
2020-04-04 19:00:00 18.8 14 Sur 28 Sudoeste 0 -- -- 42
2020-04-04 18:00:00 19.2 13 Sudeste 23 Sudeste 0 -- -- 43
2020-04-04 17:00:00 19.5 5 Sur 21 Sudeste 0 -- -- 41
2020-04-04 16:00:00 19 10 Sudeste 27 Sudoeste 0 -- -- 42
2020-04-04 15:00:00 18.4 11 Sudoeste 24 Sudoeste 0 -- -- 40
2020-04-04 14:00:00 17.6 9 Sur 22 Sudeste 0 -- -- 42
2020-04-04 13:00:00 16.5 10 Sudeste 19 Sudeste 0 -- -- 55
2020-04-04 12:00:00 13.8 8 Sudeste 17 Sudeste 0 -- -- 63
2020-04-04 11:00:00 9.7 4 Sudeste 12 Sudeste 0 -- -- 73
2020-04-04 10:00:00 3.9 3 Este 8 Sudeste 0 -- -- 90
2020-04-04 09:00:00 -0.3 0 Calma 3 Sudeste 0 -- -- 98
2020-04-04 08:00:00 -1.9 0 Calma 4 Sudoeste 0 -- -- 95
2020-04-04 07:00:00 -1.6 0 Calma 4 Sudoeste 0 -- -- 95
2020-04-04 06:00:00 -1.1 0 Calma 3 Oeste 0 -- -- 94
2020-04-04 05:00:00 -0.5 0 Calma 4 Oeste 0 -- -- 94
2020-04-04 04:00:00 0 0 Calma 3 Sur 0 -- -- 93
2020-04-04 03:00:00 0.8 0 Calma 4 Sudeste 0 -- -- 93
2020-04-04 02:00:00 1.4 0 Calma 7 Sudoeste 0 -- -- 92
2020-04-04 01:00:00 2.1 5 Sudoeste 9 Sudoeste 0 -- -- 91
2020-04-04 00:00:00 2.4 0 Calma 5 Noroeste 0 -- -- 88
2020-04-03 23:00:00 3.8 2 Noroeste 5 Sudoeste 0 -- -- 85
2020-04-03 22:00:00 5.7 3 Oeste 6 Oeste 0 -- -- 79
2020-04-03 21:00:00 8.8 3 Noroeste 9 Noroeste 0 -- -- 72
2020-04-03 20:00:00 13.5 6 Noroeste 10 Noroeste 0 -- -- 58
2020-04-03 19:00:00 14.7 3 Oeste 13 Norte 0 -- -- 50
2020-04-03 18:00:00 15.2 3 Noroeste 11 Sudoeste 0 -- -- 50
2020-04-03 17:00:00 14.3 8 Noroeste 14 Oeste 0 -- -- 54
2020-04-03 16:00:00 13.1 4 Sudoeste 13 Noroeste 0 -- -- 59
2020-04-03 15:00:00 12 4 Norte 15 Noroeste 0 -- -- 64
2020-04-03 14:00:00 11.2 6 Norte 15 Noroeste 0 -- -- 63
2020-04-03 13:00:00 10.2 6 Norte 15 Norte 0 -- -- 59
2020-04-03 12:00:00 9 4 Este 10 Este 0 -- -- 63
2020-04-03 11:00:00 5.8 4 Norte 9 Norte 0 -- -- 80
2020-04-03 10:00:00 2 6 Noroeste 9 Noroeste 0 -- -- 95
2020-04-03 09:00:00 -0.8 5 Noroeste 7 Norte 0 -- -- 97
2020-04-03 08:00:00 -1.9 2 Oeste 6 Sudoeste 0 -- -- 93
2020-04-03 07:00:00 -1.7 2 Sudoeste 8 Sudoeste 0 -- -- 93
2020-04-03 06:00:00 -1.2 3 Oeste 5 Sudoeste 0 -- -- 92
2020-04-03 05:00:00 -0.3 0 Calma 5 Sur 0 -- -- 91
2020-04-03 04:00:00 0.1 3 Sur 5 Sudoeste 0 -- -- 88
2020-04-03 03:00:00 1.3 0 Calma 6 Nordeste 0 -- -- 87
2020-04-03 02:00:00 2.6 2 Este 14 Nordeste 0 -- -- 85
2020-04-03 01:00:00 2.9 5 Sudeste 11 Nordeste 0 -- -- 84
2020-04-03 00:00:00 3.7 3 Este 10 Este 0 -- -- 82
2020-04-02 23:00:00 5.1 4 Este 18 Sudeste 0 -- -- 78
2020-04-02 22:00:00 6.9 6 Nordeste 18 Norte 0 -- -- 72
2020-04-02 21:00:00 8.5 9 Nordeste 23 Nordeste 0 -- -- 66
2020-04-02 20:00:00 10.3 10 Nordeste 24 Nordeste 0 -- -- 63
2020-04-02 19:00:00 11.1 10 Nordeste 27 Nordeste 0 -- -- 63
2020-04-02 18:00:00 11.6 12 Nordeste 35 Este 0 -- -- 64
2020-04-02 17:00:00 11.6 13 Nordeste 33 Nordeste 0 -- -- 69
2020-04-02 16:00:00 11.1 10 Nordeste 28 Nordeste 0 -- -- 70
2020-04-02 15:00:00 10.4 11 Nordeste 29 Nordeste 0 -- -- 76
2020-04-02 14:00:00 10.2 11 Nordeste 25 Nordeste 0 -- -- 81
2020-04-02 13:00:00 10 11 Nordeste 25 Nordeste 0 -- -- 83
2020-04-02 12:00:00 9.2 11 Nordeste 23 Nordeste 0 -- -- 86
2020-04-02 11:00:00 8.5 7 Nordeste 21 Nordeste 0 -- -- 92
2020-04-02 10:00:00 7.7 6 Nordeste 18 Nordeste 0 -- -- 95
2020-04-02 09:00:00 6.7 3 Nordeste 14 Nordeste 0 -- -- 97
2020-04-02 08:00:00 6.3 4 Nordeste 8 Nordeste 0.2 -- -- 97
2020-04-02 07:00:00 6.3 3 Norte 9 Norte 0.2 -- -- 97
2020-04-02 06:00:00 6.5 4 Nordeste 11 Nordeste 0.2 -- -- 97
2020-04-02 05:00:00 6.5 3 Norte 5 Nordeste 0 -- -- 98
2020-04-02 04:00:00 6.7 3 Norte 8 Norte 0 -- -- 98
2020-04-02 03:00:00 6.7 4 Norte 9 Norte 0.2 -- -- 98
2020-04-02 02:00:00 6.8 5 Norte 11 Norte 0 -- -- 98
2020-04-02 01:00:00 6.9 3 Noroeste 9 Noroeste 0.6 -- -- 98
2020-04-02 00:00:00 6.7 5 Noroeste 9 Noroeste 0 -- -- 98
2020-04-01 23:00:00 6.2 3 Noroeste 5 Noroeste 0 -- -- 97
2020-04-01 22:00:00 6.4 2 Sudoeste 9 Noroeste 0.2 -- -- 96
2020-04-01 21:00:00 6.9 7 Norte 13 Norte 0.4 -- -- 96
2020-04-01 20:00:00 7.3 3 Norte 14 Noroeste 0.4 -- -- 95
2020-04-01 19:00:00 7.7 7 Oeste 19 Oeste 1.8 -- -- 93
2020-04-01 18:00:00 8.6 12 Sudoeste 30 Sudoeste 0.6 -- -- 84
2020-04-01 17:00:00 11.8 9 Sudeste 18 Sudoeste 0 -- -- 69
2020-04-01 16:00:00 12.5 8 Nordeste 16 Nordeste 0 -- -- 65
2020-04-01 15:00:00 12.6 8 Norte 21 Norte 0 -- -- 64
2020-04-01 14:00:00 12.2 7 Norte 13 Norte 0 -- -- 66
2020-04-01 13:00:00 11.8 3 Sudeste 19 Sudeste 0 -- -- 70
2020-04-01 12:00:00 12.1 8 Sudeste 17 Sudeste 0 -- -- 76
2020-04-01 11:00:00 9.4 5 Sudeste 19 Sudeste 0 -- -- 84
2020-04-01 10:00:00 7.1 6 Sudeste 12 Sudeste 0 -- -- 98
2020-04-01 09:00:00 4 3 Sur 6 Sudoeste 0 -- -- 97
2020-04-01 08:00:00 3.7 3 Sur 6 Sudeste 0 -- -- 95
2020-04-01 07:00:00 4.5 4 Sudoeste 6 Sur 0 -- -- 95
2020-04-01 06:00:00 4.8 4 Sur 8 Sudeste 0 -- -- 94
2020-04-01 05:00:00 5.5 0 Calma 12 Sudeste 0 -- -- 92
2020-04-01 04:00:00 6.1 0 Calma 6 Sudeste 0 -- -- 93
2020-04-01 03:00:00 6.2 2 Este 12 Sudeste 0 -- -- 92
2020-04-01 02:00:00 6.3 0 Calma 9 Sudeste 2 -- -- 93
2020-04-01 01:00:00 6.4 4 Este 21 Este 1 -- -- 91
2020-04-01 00:00:00 6.6 14 Sudeste 29 Sudeste 0 -- -- 87
2020-03-31 23:00:00 6.5 9 Este 26 Sudeste 0 -- -- 87
2020-03-31 22:00:00 6.4 6 Este 22 Sudeste 0 -- -- 86
2020-03-31 21:00:00 7 6 Sudeste 21 Sudeste 0 -- -- 84
2020-03-31 20:00:00 7.3 10 Sudeste 30 Sudeste 0.2 -- -- 85
2020-03-31 19:00:00 7.5 15 Sudeste 28 Sudeste 1 -- -- 87
2020-03-31 18:00:00 8.8 17 Sudeste 37 Este 0 -- -- 77
2020-03-31 17:00:00 8.5 12 Este 30 Este 0 -- -- 75
2020-03-31 16:00:00 7.8 11 Este 33 Sudeste 0 -- -- 75
2020-03-31 15:00:00 7.8 15 Este 35 Sudeste 0 -- -- 75
2020-03-31 14:00:00 7.8 15 Este 39 Sudeste 0 -- -- 78
2020-03-31 13:00:00 6.4 14 Este 28 Este 0 -- -- 71
2020-03-31 12:00:00 4.9 14 Este 30 Nordeste 0 -- -- 72
2020-03-31 11:00:00 3.8 11 Este 28 Sudeste 0 -- -- 72
2020-03-31 10:00:00 2.1 12 Este 30 Nordeste 0 -- -- 74
2020-03-31 09:00:00 1 10 Este 23 Este 0 -- -- 77
2020-03-31 08:00:00 0.3 11 Nordeste 28 Nordeste 0 -- -- 76
2020-03-31 07:00:00 0.2 13 Este 25 Este 0 -- -- 77
2020-03-31 06:00:00 0.3 10 Nordeste 25 Este 0 -- -- 76
2020-03-31 05:00:00 0.3 14 Este 24 Nordeste 0 -- -- 76
2020-03-31 04:00:00 0.3 11 Nordeste 23 Este 0 -- -- 77
2020-03-31 03:00:00 0.3 4 Nordeste 19 Nordeste 0 -- -- 78
2020-03-31 02:00:00 0.7 7 Nordeste 19 Nordeste 0 -- -- 75
2020-03-31 01:00:00 0.5 5 Nordeste 20 Nordeste 0 -- -- 74
2020-03-31 00:00:00 0.7 8 Nordeste 26 Nordeste 0 -- -- 72
2020-03-30 23:00:00 1 13 Nordeste 32 Nordeste 0 -- -- 70
2020-03-30 22:00:00 1.4 10 Nordeste 28 Nordeste 0 -- -- 66
2020-03-30 21:00:00 2.1 10 Nordeste 29 Nordeste 0 -- -- 61
2020-03-30 20:00:00 3.4 15 Nordeste 31 Este 0 -- -- 56
2020-03-30 19:00:00 4.8 12 Nordeste 29 Nordeste 0 -- -- 51
2020-03-30 18:00:00 5.2 12 Nordeste 29 Este 0 -- -- 45
2020-03-30 17:00:00 6.5 11 Nordeste 36 Nordeste 0 -- -- 51
2020-03-30 16:00:00 5.4 10 Nordeste 31 Este 0 -- -- 47
2020-03-30 15:00:00 6.4 14 Nordeste 30 Nordeste 0 -- -- 47
2020-03-30 14:00:00 4.8 15 Nordeste 31 Este 0 -- -- 53
2020-03-30 13:00:00 4.3 11 Nordeste 36 Nordeste 0 -- -- 52
2020-03-30 12:00:00 3.4 13 Nordeste 32 Este 0 -- -- 62
2020-03-30 11:00:00 3 14 Nordeste 32 Nordeste 0 -- -- 66
2020-03-30 10:00:00 2.3 15 Nordeste 33 Nordeste 0 -- -- 68
2020-03-30 09:00:00 1.8 9 Nordeste 33 Nordeste 0 -- -- 73
2020-03-30 08:00:00 1.8 12 Nordeste 26 Norte 0 -- -- 70
2020-03-30 07:00:00 2.2 12 Nordeste 28 Este 0 -- -- 68
2020-03-30 06:00:00 2.7 11 Nordeste 32 Nordeste 0 -- -- 73
2020-03-30 05:00:00 3.4 11 Nordeste 38 Nordeste 0 -- -- 76
2020-03-30 04:00:00 3.8 9 Nordeste 34 Nordeste 0 -- -- 77
2020-03-30 03:00:00 4.1 10 Nordeste 29 Este 0 -- -- 79
2020-03-30 02:00:00 4.6 9 Nordeste 27 Nordeste 0 -- -- 77
2020-03-30 01:00:00 5.3 10 Nordeste 34 Nordeste 0 -- -- 78
2020-03-30 00:00:00 6.3 12 Nordeste 26 Este 0 -- -- 76
2020-03-29 23:00:00 6.8 14 Nordeste 28 Nordeste 0 -- -- 74
2020-03-29 22:00:00 6.9 12 Nordeste 30 Nordeste 0 -- -- 75
2020-03-29 21:00:00 7.9 13 Nordeste 36 Este 0 -- -- 71
2020-03-29 20:00:00 10.9 14 Nordeste 31 Nordeste 0 -- -- 59
2020-03-29 19:00:00 13.8 14 Nordeste 31 Este 0 -- -- 46
2020-03-29 18:00:00 15.9 9 Nordeste 22 Nordeste 0 -- -- 39
2020-03-29 17:00:00 16.5 8 Nordeste 22 Nordeste 0 -- -- 39
2020-03-29 16:00:00 16.6 6 Nordeste 19 Noroeste 0 -- -- 43
2020-03-29 15:00:00 15.7 5 Nordeste 19 Este 0 -- -- 45
2020-03-29 14:00:00 14.6 6 Nordeste 18 Norte 0 -- -- 45
2020-03-29 13:00:00 13.7 6 Nordeste 15 Nordeste 0 -- -- 47
2020-03-29 12:00:00 11.5 5 Nordeste 12 Nordeste 0 -- -- 56
2020-03-29 11:00:00 8.5 4 Nordeste 9 Noroeste 0 -- -- 72
2020-03-29 10:00:00 3.9 5 Noroeste 12 Noroeste 0 -- -- 89
2020-03-29 09:00:00 1.3 6 Noroeste 11 Noroeste 0 -- -- 94
2020-03-29 08:00:00 0.2 4 Noroeste 10 Noroeste 0 -- -- 92
2020-03-29 07:00:00 -0.2 4 Noroeste 8 Noroeste 0 -- -- 94
2020-03-29 06:00:00 -0.4 3 Sudoeste 5 Sudoeste 0 -- -- 92
2020-03-29 05:00:00 0 2 Sudoeste 4 Sudoeste 0 -- -- 91
2020-03-29 03:00:00 1.9 3 Noroeste 6 Sudoeste 0 -- -- 88
2020-03-29 01:00:00 2.1 0 Calma 8 Noroeste 0 -- -- 86
2020-03-29 00:00:00 3.4 4 Sudoeste 7 Norte 0 -- -- 81
2020-03-28 23:00:00 4.9 5 Noroeste 9 Noroeste 0 -- -- 80
2020-03-28 22:00:00 4 4 Oeste 5 Oeste 0 -- -- 76
2020-03-28 21:00:00 6.2 3 Oeste 5 Oeste 0 -- -- 68
2020-03-28 20:00:00 8.7 4 Oeste 6 Oeste 0 -- -- 61
2020-03-28 19:00:00 14.5 4 Oeste 8 Nordeste 0 -- -- 48
2020-03-28 18:00:00 16.5 4 Nordeste 11 Nordeste 0 -- -- 36
2020-03-28 17:00:00 17.1 3 Este 12 Sudeste 0 -- -- 37
2020-03-28 16:00:00 17.3 5 Sur 13 Sudeste 0 -- -- 37
2020-03-28 15:00:00 16.5 5 Sur 17 Sudeste 0 -- -- 36
2020-03-28 14:00:00 15.5 7 Sudeste 21 Sudeste 0 -- -- 35
2020-03-28 13:00:00 13.6 8 Este 16 Nordeste 0 -- -- 38
2020-03-28 12:00:00 13.1 6 Sudeste 14 Sudeste 0 -- -- 45
2020-03-28 11:00:00 10.2 4 Sudeste 9 Sudeste 0 -- -- 56
2020-03-28 10:00:00 7 4 Sudeste 8 Este 0 -- -- 65
2020-03-28 09:00:00 1.9 4 Sudeste 6 Sudeste 0 -- -- 82
2020-03-28 08:00:00 -2.5 0 Calma 4 Sudoeste 0 -- -- 92
2020-03-28 07:00:00 -3.3 0 Calma 10 Oeste 0 -- -- 91
2020-03-28 06:00:00 -2.9 4 Sudoeste 6 Sudoeste 0 -- -- 91
2020-03-28 05:00:00 -2.8 0 Calma 4 Oeste 0 -- -- 89
2020-03-28 04:00:00 -2.3 0 Calma 6 Noroeste 0 -- -- 89
2020-03-28 03:00:00 -2 3 Noroeste 5 Noroeste 0 -- -- 86
2020-03-28 02:00:00 -1 3 Noroeste 5 Noroeste 0 -- -- 84
2020-03-28 01:00:00 0.3 3 Noroeste 7 Noroeste 0 -- -- 78
2020-03-28 00:00:00 1.6 5 Noroeste 11 Noroeste 0 -- -- 77
2020-03-27 23:00:00 1.9 2 Oeste 5 Sudoeste 0 -- -- 76
2020-03-27 22:00:00 3 3 Sudoeste 9 Sudoeste 0 -- -- 72
2020-03-27 21:00:00 3.4 0 Calma 5 Nordeste 0 -- -- 71
2020-03-27 20:00:00 6.5 0 Calma 10 Nordeste 0 -- -- 58
2020-03-27 19:00:00 11.2 5 Este 30 Sudeste 0 -- -- 39
2020-03-27 18:00:00 12.7 12 Sudeste 29 Sur 0 -- -- 34
2020-03-27 17:00:00 13.6 16 Sudeste 34 Sudeste 0 -- -- 36
2020-03-27 16:00:00 13.9 16 Sudeste 36 Sudeste 0 -- -- 35
2020-03-27 15:00:00 13.7 14 Sudeste 35 Sudeste 0 -- -- 41
2020-03-27 14:00:00 12.9 15 Sudeste 31 Sudeste 0 -- -- 45
2020-03-27 13:00:00 11.3 10 Este 30 Nordeste 0 -- -- 53
2020-03-27 12:00:00 9.5 12 Este 30 Sudeste 0 -- -- 51
2020-03-27 11:00:00 6.8 12 Este 27 Este 0 -- -- 58
2020-03-27 10:00:00 4.9 13 Este 28 Este 0 -- -- 64
2020-03-27 09:00:00 1.1 3 Norte 8 Norte 0 -- -- 82
2020-03-27 08:00:00 -0.9 4 Noroeste 6 Noroeste 0 -- -- 87
2020-03-27 07:00:00 -2.2 2 Sudoeste 5 Oeste 0 -- -- 86
2020-03-27 06:00:00 -1.4 0 Calma 12 Nordeste 0 -- -- 81
2020-03-27 05:00:00 -0.8 3 Nordeste 9 Nordeste 0 -- -- 80
2020-03-27 04:00:00 -0.2 3 Nordeste 8 Nordeste 0 -- -- 78
2020-03-27 03:00:00 0.3 3 Nordeste 8 Sudeste 0 -- -- 75
2020-03-27 02:00:00 1.4 4 Nordeste 17 Nordeste 0 -- -- 73
2020-03-27 01:00:00 1.8 4 Este 18 Nordeste 0 -- -- 72
2020-03-27 00:00:00 3.4 9 Este 21 Este 0 -- -- 69
2020-03-26 23:00:00 4.6 7 Este 25 Nordeste 0 -- -- 67
2020-03-26 22:00:00 5.5 9 Este 26 Este 0 -- -- 69
2020-03-26 21:00:00 5.9 10 Este 22 Este 0 -- -- 67
2020-03-26 20:00:00 6.6 9 Este 28 Sudeste 0 -- -- 62
2020-03-26 19:00:00 8.7 11 Este 26 Este 0 -- -- 57
2020-03-26 18:00:00 10.9 8 Este 21 Este 0 -- -- 51
2020-03-26 17:00:00 11.9 9 Nordeste 22 Este 0 -- -- 50
2020-03-26 16:00:00 13.1 7 Nordeste 20 Este 0 -- -- 45
2020-03-26 15:00:00 12.7 8 Nordeste 19 Nordeste 0 -- -- 45
2020-03-26 14:00:00 12.2 6 Nordeste 18 Norte 0 -- -- 44
2020-03-26 13:00:00 10.9 5 Norte 20 Norte 0 -- -- 45
2020-03-26 12:00:00 9.7 7 Norte 18 Norte 0 -- -- 44
2020-03-26 11:00:00 7.9 4 Nordeste 12 Norte 0 -- -- 63
2020-03-26 10:00:00 4.4 6 Norte 11 Noroeste 0 -- -- 71
2020-03-26 09:00:00 0.4 5 Norte 9 Noroeste 0 -- -- 85
2020-03-26 08:00:00 -2.3 4 Norte 8 Sudoeste 0 -- -- 90
2020-03-26 07:00:00 -3 5 Sudoeste 8 Sudoeste 0 -- -- 87
2020-03-26 06:00:00 -2.5 3 Oeste 5 Oeste 0 -- -- 86
2020-03-26 05:00:00 -1 0 Calma 7 Nordeste 0 -- -- 87
2020-03-26 04:00:00 -1.2 2 Oeste 6 Sudoeste 0 -- -- 90
2020-03-26 03:00:00 0.8 2 Sudoeste 12 Sudeste -- -- -- 86
2020-03-26 02:00:00 0.7 0 Calma 9 Este 0 -- -- 81
2020-03-26 01:00:00 0.8 5 Nordeste 8 Este 0 -- -- 80
2020-03-26 00:00:00 1.7 2 Oeste 6 Oeste 0 -- -- 76
2020-03-25 23:00:00 3.7 3 Noroeste 6 Oeste 0 -- -- 69
2020-03-25 22:00:00 5.7 4 Noroeste 6 Norte 0 -- -- 64
2020-03-25 21:00:00 7.8 0 Calma 9 Sudeste 0 -- -- 56
2020-03-25 20:00:00 11.8 5 Nordeste 23 Este 0 -- -- 38
2020-03-25 19:00:00 15.2 12 Nordeste 22 Este 0 -- -- 36
2020-03-25 18:00:00 17.3 5 Norte 13 Norte 0 -- -- 35
2020-03-25 17:00:00 17 8 Nordeste 17 Nordeste 0 -- -- 37
2020-03-25 16:00:00 17.4 6 Norte 20 Norte 0 -- -- 36
2020-03-25 15:00:00 16.5 9 Nordeste 21 Norte 0 -- -- 39
2020-03-25 14:00:00 15.9 5 Nordeste 18 Norte 0 -- -- 47
2020-03-25 13:00:00 15.1 7 Norte 19 Noroeste 0 -- -- 57
2020-03-25 12:00:00 13.9 5 Noroeste 17 Norte 0 -- -- 62
2020-03-25 11:00:00 12 2 Norte 7 Noroeste 0 -- -- 71
2020-03-25 10:00:00 8.8 3 Nordeste 8 Sudeste 0 -- -- 81
2020-03-25 09:00:00 3.6 0 Calma 5 Nordeste 0 -- -- 97
2020-03-25 08:00:00 0.8 0 Calma 6 Sudoeste 0 -- -- 96
2020-03-25 07:00:00 0.6 2 Oeste 7 Noroeste 0 -- -- 94
2020-03-25 06:00:00 0.7 0 Calma 5 Oeste 0 -- -- 92
2020-03-25 05:00:00 1.9 3 Noroeste 6 Sudoeste 0 -- -- 95
2020-03-25 04:00:00 1.4 0 Calma 7 Sudoeste 0 -- -- 93
2020-03-25 03:00:00 1.6 2 Sur 5 Oeste 0 -- -- 91
2020-03-25 02:00:00 2.3 0 Calma 4 Oeste 0 -- -- 90
2020-03-25 01:00:00 3 4 Oeste 8 Oeste 0 -- -- 88
2020-03-25 00:00:00 3.9 4 Oeste 8 Oeste 0 -- -- 87
2020-03-24 23:00:00 4.9 0 Calma 4 Sudoeste 0 -- -- 85
2020-03-24 22:00:00 5.8 4 Sudoeste 7 Sudoeste 0 -- -- 84
2020-03-24 21:00:00 8.2 4 Sudoeste 8 Este 0 -- -- 77
2020-03-24 20:00:00 11.6 5 Nordeste 15 Este 0 -- -- 66
2020-03-24 19:00:00 13.5 8 Nordeste 19 Nordeste 0 -- -- 61
2020-03-24 18:00:00 15.8 10 Sudeste 20 Sudeste 0 -- -- 56
2020-03-24 17:00:00 15.8 8 Este 21 Nordeste 0 -- -- 55
2020-03-24 16:00:00 16.4 10 Sudeste 27 Sudeste 0 -- -- 58
2020-03-24 15:00:00 15.1 10 Este 33 Sudeste 0 -- -- 55
2020-03-24 14:00:00 15.9 12 Sudeste 32 Sudeste 0 -- -- 57
2020-03-24 13:00:00 15.1 11 Este 31 Sudeste 0 -- -- 62
2020-03-24 12:00:00 14.8 14 Sudeste 28 Sudeste 0 -- -- 63
2020-03-24 11:00:00 13.3 12 Este 26 Sudeste 0 -- -- 68
2020-03-24 10:00:00 11.2 8 Este 18 Nordeste 0 -- -- 75
2020-03-24 09:00:00 7.9 7 Este 13 Norte 0 -- -- 87
2020-03-24 08:00:00 6.3 5 Este 13 Este 0 -- -- 92
2020-03-24 07:00:00 4 6 Este 14 Este 0 -- -- 96
2020-03-24 06:00:00 4 3 Sur 9 Noroeste 0 -- -- 94
2020-03-24 05:00:00 4.7 6 Noroeste 11 Este 0 -- -- 94
2020-03-24 04:00:00 5.7 6 Este 14 Nordeste 0 -- -- 95
2020-03-24 03:00:00 4.6 0 Calma 6 Este 0 -- -- 93
2020-03-24 02:00:00 4.5 0 Calma 9 Sudeste 0 -- -- 90
2020-03-24 01:00:00 4.7 4 Oeste 7 Este 0 -- -- 88
2020-03-24 00:00:00 6.2 3 Este 7 Este 0 -- -- 86
2020-03-23 23:00:00 8.3 5 Nordeste 12 Nordeste 0 -- -- 82
2020-03-23 22:00:00 9.4 8 Este 17 Este 0 -- -- 79
2020-03-23 21:00:00 11.1 6 Este 18 Este 0 -- -- 72
2020-03-23 20:00:00 12.2 14 Sudeste 30 Sudeste 0 -- -- 67
2020-03-23 19:00:00 13.4 9 Sudeste 25 Sudeste 0 -- -- 62
2020-03-23 18:00:00 14.5 12 Sudeste 25 Este 0 -- -- 60
2020-03-23 17:00:00 13.9 8 Este 19 Nordeste 0 -- -- 62
2020-03-23 16:00:00 14.4 10 Este 25 Nordeste 0 -- -- 57
2020-03-23 15:00:00 14.6 7 Este 27 Sudeste 0 -- -- 60
2020-03-23 14:00:00 14.8 12 Sudeste 27 Sudeste 0 -- -- 63
2020-03-23 13:00:00 13.7 15 Sudeste 28 Sudeste 0 -- -- 67
2020-03-23 12:00:00 14.4 11 Este 28 Sudeste 0 -- -- 67
2020-03-23 11:00:00 12.7 10 Sudeste 25 Nordeste 0 -- -- 71
2020-03-23 10:00:00 10.2 9 Este 16 Nordeste 0 -- -- 84
2020-03-23 09:00:00 5.8 2 Norte 8 Noroeste 0 -- -- 96
2020-03-23 08:00:00 3.4 0 Calma 4 Noroeste 0 -- -- 98
2020-03-23 07:00:00 3.1 3 Noroeste 5 Noroeste 0 -- -- 96
2020-03-23 06:00:00 3 3 Noroeste 6 Noroeste 0 -- -- 96
2020-03-23 05:00:00 2.5 2 Oeste 5 Oeste 0 -- -- 93
2020-03-23 04:00:00 4.4 2 Noroeste 7 Nordeste 0 -- -- 92
2020-03-23 03:00:00 5.2 4 Noroeste 8 Noroeste 0 -- -- 93
2020-03-23 02:00:00 5.4 3 Noroeste 8 Nordeste 0 -- -- 94
2020-03-23 01:00:00 5.9 3 Norte 6 Oeste 0 -- -- 91
2020-03-23 00:00:00 6.7 0 Calma 8 Noroeste 0 -- -- 89
2020-03-22 23:00:00 8.2 3 Nordeste 13 Nordeste 0 -- -- 84
2020-03-22 22:00:00 9 7 Nordeste 14 Este 0 -- -- 83
2020-03-22 21:00:00 9.4 3 Oeste 9 Nordeste 0 -- -- 78
2020-03-22 20:00:00 10.7 3 Norte 9 Nordeste 0 -- -- 71
2020-03-22 19:00:00 12.4 6 Este 20 Sudeste 0 -- -- 63
2020-03-22 18:00:00 13.1 9 Sudeste 23 Sudeste 0 -- -- 70
2020-03-22 17:00:00 13 15 Sudeste 33 Sur 0 -- -- 72
2020-03-22 16:00:00 15.5 7 Sur 22 Sudeste 0 -- -- 66
2020-03-22 15:00:00 14.7 3 Este 10 Nordeste 0 -- -- 59
2020-03-22 14:00:00 15.1 4 Sudoeste 9 Sur 0 -- -- 63
2020-03-22 13:00:00 12.4 5 Norte 15 Nordeste 0 -- -- 75
2020-03-22 12:00:00 11.8 5 Noroeste 11 Noroeste 0 -- -- 81
2020-03-22 11:00:00 10.5 3 Nordeste 10 Norte 0 -- -- 90
2020-03-22 10:00:00 8.5 4 Este 9 Nordeste 0 -- -- 95
2020-03-22 09:00:00 7.6 0 Calma 5 Norte 0 -- -- 94
2020-03-22 08:00:00 6.7 3 Noroeste 6 Noroeste 0 -- -- 96
2020-03-22 07:00:00 6.9 0 Calma -- -- 0 -- -- 95
2020-03-22 06:00:00 6.8 0 Calma 8 Noroeste 0 -- -- 94
2020-03-22 05:00:00 7.1 2 Noroeste 5 Oeste 0 -- -- 95
2020-03-22 04:00:00 7.1 2 Norte 8 Noroeste 0 -- -- 94
2020-03-22 03:00:00 7.3 4 Noroeste 6 Oeste 0 -- -- 94
2020-03-22 02:00:00 7.5 0 Calma 5 Sudoeste 0 -- -- 94
2020-03-22 01:00:00 7.6 2 Sur 11 Sudeste 0 -- -- 94
2020-03-22 00:00:00 7.9 5 Sur 11 Sudeste 0 -- -- 96
2020-03-21 23:00:00 7.8 2 Sudeste 10 Sudeste 0 -- -- 93
2020-03-21 22:00:00 8.7 5 Sur 10 Sudeste 0 -- -- 93
2020-03-21 21:00:00 9.3 7 Sudeste 23 Sudoeste 2.8 -- -- 92
2020-03-21 20:00:00 10.4 8 Sur 26 Oeste 0.6 -- -- 87
2020-03-21 19:00:00 12 13 Oeste 22 Oeste 0.2 -- -- 80
2020-03-21 18:00:00 13.1 12 Oeste 22 Oeste 0 -- -- 73
2020-03-21 17:00:00 15 13 Oeste 24 Oeste 0 -- -- 67
2020-03-21 16:00:00 15.2 6 Oeste 17 Noroeste 0 -- -- 61
2020-03-21 15:00:00 15.3 4 Sudeste 12 Sudeste 0 -- -- 58
2020-03-21 14:00:00 14.8 5 Sudeste 19 Sudeste 0 -- -- 66
2020-03-21 13:00:00 14.8 11 Sudeste 23 Sudeste 0 -- -- 64
2020-03-21 12:00:00 13.7 6 Este 27 Nordeste 0 -- -- 69
2020-03-21 11:00:00 11.7 8 Este 23 Sudeste 0 -- -- 79
2020-03-21 10:00:00 10.1 5 Este 14 Nordeste 0 -- -- 87
2020-03-21 09:00:00 5.6 4 Norte 7 Noroeste 0 -- -- 99
2020-03-21 08:00:00 2.9 4 Oeste 6 Oeste 0 -- -- 98
2020-03-21 07:00:00 2.8 2 Noroeste 5 Sudoeste 0 -- -- 97
2020-03-21 06:00:00 3.1 4 Sudoeste 6 Sudoeste 0 -- -- 96
2020-03-21 05:00:00 3.3 4 Oeste 5 Oeste 0 -- -- 95
2020-03-21 04:00:00 3.5 2 Sudoeste 5 Sudoeste 0 -- -- 95
2020-03-21 03:00:00 4.4 0 Calma 8 Sudoeste 0 -- -- 93
2020-03-21 02:00:00 5.1 5 Sudoeste 8 Sur 0 -- -- 96
2020-03-21 01:00:00 5.7 0 Calma 8 Sudeste 0 -- -- 93
2020-03-21 00:00:00 6.3 0 Calma 5 Sudoeste 0 -- -- 93
2020-03-20 23:00:00 7.4 0 Calma 8 Oeste 0 -- -- 92
2020-03-20 22:00:00 9.9 0 Calma 9 Sudoeste 0 -- -- 87
2020-03-20 21:00:00 10.7 6 Sudeste 10 Sudeste 0 -- -- 87
2020-03-20 20:00:00 11.6 4 Sudeste 7 Sudeste 0 -- -- 86
2020-03-20 19:00:00 12.5 4 Sudeste 22 Oeste 0.6 -- -- 84
2020-03-20 18:00:00 15.1 8 Sudoeste 27 Sudoeste 0 -- -- 66
2020-03-20 17:00:00 16.7 10 Sudeste 19 Sudeste 0 -- -- 61
2020-03-20 16:00:00 16.7 9 Sudeste 18 Sudeste 0 -- -- 60
2020-03-20 15:00:00 16.5 10 Sudeste 21 Sudeste 0 -- -- 62
2020-03-20 14:00:00 15.3 5 Este 17 Sudeste 0 -- -- 67
2020-03-20 13:00:00 14 6 Este 14 Nordeste 0 -- -- 71
2020-03-20 12:00:00 13.6 5 Sudeste 11 Este 0 -- -- 72
2020-03-20 11:00:00 11.1 5 Sudeste 10 Sudeste 0 -- -- 81
2020-03-20 10:00:00 9.4 5 Sudeste 8 Sudeste 0 -- -- 87
2020-03-20 09:00:00 7.3 0 Calma 5 Sudoeste 0 -- -- 93
2020-03-20 08:00:00 6 3 Sur 5 Sudeste 0 -- -- 93
2020-03-20 07:00:00 6 0 Calma 4 Sudoeste 0 -- -- 91
2020-03-20 06:00:00 5.9 0 Calma 5 Sudoeste 0 -- -- 90
2020-03-20 05:00:00 5.9 3 Sur 8 Sur 0 -- -- 91
2020-03-20 04:00:00 5.5 3 Sudeste 6 Sudeste 0 -- -- 88
2020-03-20 03:00:00 6.9 3 Oeste 5 Sudoeste 0 -- -- 87
2020-03-20 02:00:00 7.7 2 Sur 8 Sudeste 0 -- -- 82
2020-03-20 01:00:00 8.2 3 Sur 9 Sur 0 -- -- 79
2020-03-20 00:00:00 8.2 5 Sur 13 Sur 0 -- -- 76
2020-03-19 23:00:00 6.8 4 Sudoeste 5 Sudoeste 0 -- -- 84
2020-03-19 22:00:00 7.1 6 Oeste 9 Oeste 0 -- -- 80
2020-03-19 21:00:00 8.2 4 Oeste 9 Sudoeste 0 -- -- 76
2020-03-19 20:00:00 10.8 2 Sudoeste 7 Sudeste 0 -- -- 68
2020-03-19 19:00:00 13.5 5 Sudeste 10 Sudeste 0 -- -- 56
2020-03-19 18:00:00 14.9 8 Sudeste 19 Sudeste 0 -- -- 56
2020-03-19 17:00:00 16.4 12 Sudeste 24 Sudeste 0 -- -- 53
2020-03-19 16:00:00 17.9 12 Sudeste 25 Sudeste 0 -- -- 44
2020-03-19 15:00:00 17.4 14 Sudeste 24 Sudeste 0 -- -- 45
2020-03-19 14:00:00 17.3 7 Este 15 Nordeste 0 -- -- 54
2020-03-19 13:00:00 15.6 6 Este 19 Sudeste 0 -- -- 59
2020-03-19 12:00:00 13.3 3 Sudeste 9 Este 0 -- -- 74
2020-03-19 11:00:00 9.7 2 Noroeste 8 Noroeste 0 -- -- 92
2020-03-19 10:00:00 7.5 5 Noroeste 8 Norte 0 -- -- 98
2020-03-19 09:00:00 6.2 7 Norte 12 Noroeste 0 -- -- 98
2020-03-19 08:00:00 5.6 2 Noroeste 8 Sudoeste 0 -- -- 96
2020-03-19 07:00:00 5.6 3 Sudoeste 6 Sudoeste 0 -- -- 95
2020-03-19 06:00:00 6 0 Calma 5 Sudoeste 0 -- -- 96
2020-03-19 05:00:00 6.1 4 Sudoeste 6 Sudoeste 0 -- -- 95
2020-03-19 04:00:00 6.3 0 Calma 6 Sudoeste 0 -- -- 93
2020-03-19 03:00:00 6.7 4 Oeste 7 Oeste 0 -- -- 94
2020-03-19 02:00:00 6.7 0 Calma 5 Sudoeste 0 -- -- 92
2020-03-19 01:00:00 7.1 0 Calma 4 Sur 0 -- -- 91
2020-03-19 00:00:00 7.5 0 Calma 5 Sudoeste 0 -- -- 90
2020-03-18 23:00:00 8.4 2 Sudoeste 5 Sudoeste 0 -- -- 87
2020-03-18 22:00:00 9.5 2 Sudeste 6 Sur 0 -- -- 88
2020-03-18 21:00:00 10.7 4 Sudoeste 6 Oeste 0 -- -- 86
2020-03-18 20:00:00 12.6 4 Oeste 6 Oeste 0 -- -- 79
2020-03-18 19:00:00 15.9 3 Noroeste 9 Noroeste 0 -- -- 73
2020-03-18 18:00:00 17.8 4 Noroeste 9 Noroeste 0 -- -- 66
2020-03-18 17:00:00 19.3 4 Oeste 9 Oeste 0 -- -- 58
2020-03-18 16:00:00 19.4 2 Este 8 Noroeste 0 -- -- 61
2020-03-18 15:00:00 18.4 3 Noroeste 8 Sudeste 0 -- -- 59
2020-03-18 14:00:00 17 2 Sur 10 Nordeste 0 -- -- 61
2020-03-18 13:00:00 14.2 4 Este 12 Este 0 -- -- 72
2020-03-18 12:00:00 12 5 Este 15 Este 0 -- -- 79
2020-03-18 11:00:00 9.4 4 Nordeste 9 Nordeste 0 -- -- 89
2020-03-18 10:00:00 7 5 Nordeste 12 Nordeste 0 -- -- 98
2020-03-18 09:00:00 5.5 2 Norte 5 Noroeste 0 -- -- 99
2020-03-18 08:00:00 4.4 4 Noroeste 8 Noroeste 0 -- -- 98
2020-03-18 07:00:00 4.7 5 Noroeste 8 Noroeste 0 -- -- 98
2020-03-18 06:00:00 4.8 5 Noroeste 10 Noroeste 0 -- -- 98
2020-03-18 05:00:00 5 4 Noroeste 9 Noroeste 0 -- -- 96
2020-03-18 04:00:00 5.9 2 Noroeste 7 Noroeste 0 -- -- 93
2020-03-18 03:00:00 6.9 4 Nordeste 9 Este 0 -- -- 94
2020-03-18 02:00:00 7.5 2 Oeste 16 Sudeste 0 -- -- 90
2020-03-18 01:00:00 7.9 2 Nordeste 12 Sudeste 0 -- -- 93
2020-03-18 00:00:00 7.9 3 Noroeste 11 Sudeste 0 -- -- 88
2020-03-17 23:00:00 9.2 8 Sudeste 23 Sudeste 0 -- -- 90
2020-03-17 22:00:00 10.3 8 Nordeste 12 Nordeste 0 -- -- 87
2020-03-17 21:00:00 9.2 5 Este 14 Nordeste 0 -- -- 89
2020-03-17 20:00:00 10.4 4 Norte 13 Nordeste 0 -- -- 85
2020-03-17 19:00:00 12 5 Nordeste 18 Nordeste 0 -- -- 80
2020-03-17 18:00:00 12.5 10 Nordeste 22 Nordeste 0 -- -- 79
2020-03-17 17:00:00 12.8 11 Nordeste 25 Nordeste 0 -- -- 77
2020-03-17 16:00:00 12.7 11 Nordeste 26 Este 0 -- -- 76
2020-03-17 15:00:00 12.2 13 Este 24 Nordeste 0 -- -- 76
2020-03-17 14:00:00 11.5 13 Este 28 Este 0 -- -- 77
2020-03-17 13:00:00 11 14 Nordeste 30 Nordeste 0 -- -- 79
2020-03-17 12:00:00 10.5 15 Nordeste 33 Este 0 -- -- 79
2020-03-17 11:00:00 8.9 15 Nordeste 30 Este 0 -- -- 84
2020-03-17 10:00:00 8.4 17 Nordeste 36 Este 0 -- -- 83
2020-03-17 09:00:00 7.5 10 Nordeste 25 Nordeste 0 -- -- 88
2020-03-17 08:00:00 6.4 13 Nordeste 35 Este 0 -- -- 90
2020-03-17 07:00:00 6.4 15 Nordeste 36 Este 0 -- -- 87
2020-03-17 06:00:00 6.2 12 Nordeste 34 Nordeste 0 -- -- 88
2020-03-17 05:00:00 5.8 6 Nordeste 26 Nordeste 0 -- -- 88
2020-03-17 04:00:00 6 15 Nordeste 36 Nordeste 0 -- -- 85
2020-03-17 03:00:00 6 19 Nordeste 40 Este 0 -- -- 85
2020-03-17 02:00:00 5.8 14 Nordeste 42 Nordeste 0 -- -- 85
2020-03-17 01:00:00 6 17 Nordeste 40 Nordeste 0 -- -- 84
2020-03-17 00:00:00 6 22 Nordeste 53 Nordeste 0 -- -- 82
2020-03-16 23:00:00 6 23 Nordeste 49 Nordeste 0 -- -- 83
2020-03-16 22:00:00 6 17 Nordeste 43 Nordeste 0 -- -- 83
2020-03-16 21:00:00 5.7 18 Nordeste 39 Nordeste 0 -- -- 82
2020-03-16 20:00:00 5.7 13 Nordeste 31 Nordeste 0 -- -- 80
2020-03-16 19:00:00 6 15 Nordeste 39 Este 0 -- -- 79
2020-03-16 18:00:00 6.5 13 Nordeste 42 Este 0 -- -- 79
2020-03-16 17:00:00 6.8 12 Nordeste 35 Nordeste 0 -- -- 76
2020-03-16 16:00:00 6.9 21 Nordeste 56 Nordeste 0 -- -- 75
2020-03-16 15:00:00 7.8 25 Nordeste 53 Nordeste 0 -- -- 69
2020-03-16 14:00:00 6.9 21 Nordeste 44 Este 0 -- -- 74
2020-03-16 13:00:00 6.1 17 Nordeste 46 Nordeste 0 -- -- 79
2020-03-16 12:00:00 5 14 Nordeste 33 Nordeste 0 -- -- 81
2020-03-16 11:00:00 4.1 10 Nordeste 32 Norte 0.4 -- -- 88
2020-03-16 10:00:00 2.9 8 Norte 27 Norte 0.8 -- -- 95
2020-03-16 09:00:00 2.6 8 Nordeste 27 Nordeste 1.2 -- -- 93
2020-03-16 08:00:00 3 8 Nordeste 24 Norte 0 -- -- 89
2020-03-16 07:00:00 2.5 9 Nordeste 25 Norte 0 -- -- 91
2020-03-16 06:00:00 2 8 Nordeste 27 Norte 0 -- -- 93
2020-03-16 05:00:00 2 9 Nordeste 24 Norte 0 -- -- 94
2020-03-16 04:00:00 1.5 7 Norte 22 Noroeste 1 -- -- 96
2020-03-16 03:00:00 1.9 9 Norte 17 Noroeste 1.4 -- -- 93
2020-03-16 02:00:00 3.4 6 Nordeste 21 Norte 2.2 -- -- 87
2020-03-16 01:00:00 5.3 4 Norte 29 Oeste 0 -- -- 78
2020-03-16 00:00:00 4.7 19 Oeste 35 Oeste 0 -- -- 78
2020-03-15 23:00:00 6.2 21 Oeste 35 Oeste 0 -- -- 68
2020-03-15 22:00:00 6.7 11 Noroeste 35 Oeste 0 -- -- 74
2020-03-15 21:00:00 8.5 11 Sudoeste 19 Sudoeste 0 -- -- 68
2020-03-15 20:00:00 9.9 6 Oeste 12 Oeste 0 -- -- 67
2020-03-15 19:00:00 13.7 10 Oeste 38 Oeste 0 -- -- 56
2020-03-15 18:00:00 16.2 23 Oeste 46 Oeste 0 -- -- 48
2020-03-15 17:00:00 17.1 26 Oeste 42 Oeste 0 -- -- 46
2020-03-15 16:00:00 17 19 Oeste 37 Oeste 0 -- -- 52
2020-03-15 15:00:00 19.8 18 Oeste 34 Sudoeste 0 -- -- 43
2020-03-15 14:00:00 19 17 Oeste 30 Oeste 0 -- -- 41
2020-03-15 13:00:00 18.3 9 Sudoeste 19 Sudoeste 0 -- -- 40
2020-03-15 12:00:00 16.6 9 Sudeste 17 Sudeste 0 -- -- 52
2020-03-15 11:00:00 12.6 8 Sudeste 18 Sudeste 0 -- -- 61
2020-03-15 10:00:00 8.5 10 Sudeste 15 Sudeste 0 -- -- 71
2020-03-15 09:00:00 2.7 7 Sudeste 9 Sudeste 0 -- -- 90
2020-03-15 08:00:00 -1.3 3 Sur 5 Sur 0 -- -- 92
2020-03-15 07:00:00 -1.1 0 Calma 6 Sudeste 0 -- -- 93
2020-03-15 06:00:00 -1 4 Sur 6 Sudeste 0 -- -- 90
2020-03-15 05:00:00 -0.4 3 Sudeste 6 Sudeste 0 -- -- 90
2020-03-15 04:00:00 0 0 Calma 6 Sudeste 0 -- -- 88
2020-03-15 03:00:00 0.6 3 Sur 4 Sudeste 0 -- -- 87
2020-03-15 02:00:00 1.2 2 Sudeste 6 Sur 0 -- -- 85
2020-03-15 01:00:00 1.7 0 Calma 5 Sudeste 0 -- -- 84
2020-03-15 00:00:00 2.4 0 Calma 3 Sur 0 -- -- 82
2020-03-14 23:00:00 3.1 2 Sudoeste 6 Sudoeste 0 -- -- 81
2020-03-14 22:00:00 4.3 4 Sudoeste 6 Sudoeste 0 -- -- 77
2020-03-14 21:00:00 5.9 3 Oeste 6 Sudoeste 0 -- -- 72
2020-03-14 20:00:00 8.3 4 Oeste 7 Oeste 0 -- -- 62
2020-03-14 19:00:00 14.3 5 Oeste 9 Noroeste 0 -- -- 49
2020-03-14 18:00:00 17.2 6 Noroeste 12 Noroeste 0 -- -- 36
2020-03-14 17:00:00 18.1 5 Noroeste 10 Noroeste 0 -- -- 34
2020-03-14 16:00:00 18.1 4 Noroeste 10 Sudeste 0 -- -- 34
2020-03-14 15:00:00 17.4 4 Norte 11 Sudoeste 0 -- -- 38
2020-03-14 14:00:00 15.6 3 Nordeste 12 Sudeste 0 -- -- 43
2020-03-14 13:00:00 13.6 4 Norte 9 Norte 0 -- -- 50
2020-03-14 12:00:00 11.4 3 Este 8 Nordeste 0 -- -- 59
2020-03-14 11:00:00 8.1 3 Noroeste 9 Norte 0 -- -- 75
2020-03-14 10:00:00 4.5 4 Norte 9 Noroeste 0 -- -- 87
2020-03-14 09:00:00 0.6 5 Norte 8 Norte 0 -- -- 96
2020-03-14 08:00:00 -1.6 5 Noroeste 8 Noroeste 0 -- -- 96
2020-03-14 07:00:00 -1.6 0 Calma 2 Noroeste 0 -- -- 93
2020-03-14 06:00:00 -0.3 0 Calma 9 Noroeste 0 -- -- 91
2020-03-14 05:00:00 1 5 Noroeste 9 Noroeste 0 -- -- 94
2020-03-14 04:00:00 1 6 Noroeste 9 Noroeste 0 -- -- 94
2020-03-14 03:00:00 1.8 6 Noroeste 13 Noroeste 0 -- -- 93
2020-03-14 02:00:00 2.4 2 Sudoeste 6 Noroeste 0 -- -- 84
2020-03-14 01:00:00 4.3 0 Calma 8 Norte 0 -- -- 85
2020-03-14 00:00:00 4.9 3 Nordeste 10 Norte 0 -- -- 84
2020-03-13 23:00:00 4.7 2 Norte 8 Norte 0 -- -- 85
2020-03-13 22:00:00 5.4 4 Noroeste 8 Noroeste 0 -- -- 83
2020-03-13 21:00:00 6.6 3 Norte 13 Este 0 -- -- 80
2020-03-13 20:00:00 8 3 Nordeste 19 Nordeste 0 -- -- 77
2020-03-13 19:00:00 9.3 9 Nordeste 24 Este 0 -- -- 74
2020-03-13 18:00:00 11.2 12 Nordeste 26 Nordeste 0 -- -- 69
2020-03-13 17:00:00 12.3 12 Nordeste 26 Nordeste 0 -- -- 66
2020-03-13 16:00:00 13.2 10 Nordeste 26 Nordeste 0 -- -- 66
2020-03-13 15:00:00 13.3 9 Nordeste 27 Nordeste 0 -- -- 69
2020-03-13 14:00:00 13.3 13 Nordeste 30 Este 0 -- -- 67
2020-03-13 13:00:00 13.3 11 Nordeste 26 Nordeste 0 -- -- 68
2020-03-13 12:00:00 12.1 9 Nordeste 24 Nordeste 0 -- -- 71
2020-03-13 11:00:00 9.2 10 Nordeste 24 Nordeste 0 -- -- 78
2020-03-13 10:00:00 8.6 11 Nordeste 24 Norte 0 -- -- 81
2020-03-13 09:00:00 7.9 8 Nordeste 32 Nordeste 0 -- -- 83
2020-03-13 08:00:00 7.5 9 Nordeste 26 Norte 0 -- -- 84
2020-03-13 07:00:00 7.6 9 Nordeste 29 Norte 0 -- -- 84
2020-03-13 06:00:00 7.8 12 Nordeste 29 Nordeste 0 -- -- 84
2020-03-13 05:00:00 7.9 9 Nordeste 21 Este 0 -- -- 86
2020-03-13 04:00:00 8.2 9 Nordeste 27 Nordeste 0 -- -- 84
2020-03-13 03:00:00 8.2 7 Nordeste 18 Nordeste 0 -- -- 85
2020-03-13 02:00:00 8.4 8 Nordeste 29 Este 0 -- -- 82
2020-03-13 01:00:00 8.7 10 Nordeste 25 Nordeste 0 -- -- 83
2020-03-13 00:00:00 8.9 7 Nordeste 24 Este 0 -- -- 84
2020-03-12 23:00:00 9.3 12 Nordeste 27 Nordeste 0 -- -- 86
2020-03-12 22:00:00 9.5 8 Nordeste 29 Nordeste 0 -- -- 85
2020-03-12 21:00:00 10.4 9 Nordeste 29 Este 0 -- -- 83
2020-03-12 20:00:00 11 6 Nordeste 27 Nordeste 0 -- -- 82
2020-03-12 19:00:00 12.5 13 Nordeste 24 Nordeste 0 -- -- 77
2020-03-12 18:00:00 14.6 6 Nordeste 20 Nordeste 0 -- -- 71
2020-03-12 17:00:00 16.6 6 Nordeste 19 Norte 0 -- -- 68
2020-03-12 16:00:00 17.7 8 Norte 18 Noroeste 0 -- -- 67
2020-03-12 15:00:00 18 9 Norte 19 Norte 0 -- -- 68
2020-03-12 14:00:00 19.2 3 Nordeste 11 Norte 0 -- -- 59
2020-03-12 13:00:00 18.2 7 Noroeste 11 Noroeste 0 -- -- 65
2020-03-12 12:00:00 17.5 4 Norte 10 Norte 0 -- -- 64
2020-03-12 11:00:00 15.9 7 Norte 13 Noroeste 0 -- -- 67
2020-03-12 10:00:00 12.9 0 Calma 5 Sudeste 0 -- -- 77
2020-03-12 09:00:00 8.8 0 Calma 3 Sudeste 0 -- -- 92
2020-03-12 08:00:00 7.1 0 Calma 3 Sudeste 0 -- -- 90
2020-03-12 07:00:00 7.2 2 Noroeste 6 Noroeste 0 -- -- 86
2020-03-12 06:00:00 8.4 4 Noroeste 6 Noroeste 0 -- -- 88
2020-03-12 05:00:00 8.3 3 Sudeste 4 Sudeste 0 -- -- 84
2020-03-12 04:00:00 8.7 2 Sur 5 Sur 0 -- -- 86
2020-03-12 03:00:00 9.4 0 Calma 5 Sudoeste 0 -- -- 80
2020-03-12 02:00:00 10.9 4 Sudeste 10 Sudeste 0 -- -- 77
2020-03-12 01:00:00 11.1 2 Sur 4 Oeste 0 -- -- 72
2020-03-12 00:00:00 11.4 0 Calma 4 Sur 0 -- -- 71
2020-03-11 23:00:00 12.6 4 Sur 12 Sur 0 -- -- 68
2020-03-11 22:00:00 13.2 0 Calma 10 Sur 0 -- -- 67
2020-03-11 21:00:00 14.3 7 Sudoeste 13 Sudoeste 0 -- -- 66
2020-03-11 20:00:00 14.4 9 Sudoeste 12 Sudoeste 0 -- -- 65
2020-03-11 19:00:00 18.6 7 Sudoeste 14 Oeste 0 -- -- 52
2020-03-11 18:00:00 21.9 8 Oeste 21 Oeste 0 -- -- 45
2020-03-11 17:00:00 23.1 12 Oeste 22 Oeste 0 -- -- 37
2020-03-11 16:00:00 23.6 10 Oeste 22 Oeste 0 -- -- 35
2020-03-11 15:00:00 22.8 9 Oeste 20 Oeste 0 -- -- 34
2020-03-11 14:00:00 21.3 5 Noroeste 15 Noroeste 0 -- -- 50
2020-03-11 13:00:00 19.7 5 Sudeste 12 Este 0 -- -- 52
2020-03-11 12:00:00 16.8 3 Este 10 Sudeste 0 -- -- 62
2020-03-11 11:00:00 14.2 5 Sudeste 10 Sudeste 0 -- -- 67
2020-03-11 10:00:00 11 4 Sudeste 9 Sudeste 0 -- -- 73
2020-03-11 09:00:00 5.4 4 Sudeste 6 Sudeste 0 -- -- 90
2020-03-11 08:00:00 1.3 0 Calma 6 Sudeste 0 -- -- 91
2020-03-11 07:00:00 2.2 2 Sudeste 8 Sudeste 0 -- -- 89
2020-03-11 06:00:00 2.5 3 Sur 5 Sudeste 0 -- -- 86
2020-03-11 05:00:00 2.8 2 Sudeste 5 Sur 0 -- -- 81
2020-03-11 04:00:00 3.6 3 Sudoeste 5 Sudoeste 0 -- -- 79
2020-03-11 03:00:00 4.6 2 Sudeste 6 Oeste 0 -- -- 76
2020-03-11 02:00:00 7.3 6 Noroeste 9 Oeste 0 -- -- 66
2020-03-11 01:00:00 8.1 0 Calma 7 Sudeste 0 -- -- 62
2020-03-11 00:00:00 8.8 3 Sudeste 15 Sudoeste 0 -- -- 62
2020-03-10 23:00:00 9.9 5 Sudoeste 12 Sudoeste 0 -- -- 65
2020-03-10 22:00:00 9.3 3 Sudoeste 9 Sudoeste 0 -- -- 77
2020-03-10 21:00:00 11.1 5 Sudoeste 13 Sudoeste 0 -- -- 71
2020-03-10 20:00:00 12.7 10 Sudoeste 12 Sudoeste 0 -- -- 66
2020-03-10 19:00:00 17.2 4 Sudoeste 13 Oeste 0 -- -- 61
2020-03-10 18:00:00 19.5 9 Oeste 21 Noroeste 0 -- -- 51
2020-03-10 17:00:00 20.1 13 Oeste 21 Oeste 0 -- -- 50
2020-03-10 16:00:00 19.2 10 Oeste 22 Oeste 0 -- -- 50
2020-03-10 15:00:00 20.2 14 Oeste 22 Oeste 0 -- -- 46
2020-03-10 14:00:00 18.9 9 Sudoeste 21 Oeste 0 -- -- 53
2020-03-10 13:00:00 16.5 6 Sudoeste 14 Sudoeste 0 -- -- 59
2020-03-10 12:00:00 14.4 7 Sudoeste 15 Sur 0 -- -- 61
2020-03-10 11:00:00 12.4 11 Sudeste 15 Sudeste 0 -- -- 68
2020-03-10 10:00:00 8.6 10 Sudeste 14 Sudeste 0 -- -- 81
2020-03-10 09:00:00 4.3 7 Sudeste 12 Sudeste 0 -- -- 92
2020-03-10 08:00:00 2.5 4 Sur 8 Sudeste 0 -- -- 91
2020-03-10 07:00:00 2.5 3 Sur 8 Sudeste 0 -- -- 91
2020-03-10 06:00:00 2.4 4 Sudeste 7 Sudeste 0 -- -- 89
2020-03-10 05:00:00 2.9 3 Sudeste 8 Sudeste 0 -- -- 87
2020-03-10 04:00:00 3.3 4 Sudeste 9 Sur 0 -- -- 87
2020-03-10 03:00:00 3.7 7 Sur 11 Sudeste 0 -- -- 86
2020-03-10 02:00:00 4.1 5 Sudeste 7 Sur 0 -- -- 85
2020-03-10 01:00:00 4.6 0 Calma 5 Oeste 0 -- -- 84
2020-03-10 00:00:00 4.6 0 Calma 10 Oeste 0 -- -- 80
2020-03-09 23:00:00 5.4 5 Sudoeste 12 Sudoeste 0 -- -- 80
2020-03-09 22:00:00 7.1 3 Nordeste 9 Noroeste 0 -- -- 72
2020-03-09 21:00:00 7.4 0 Calma 12 Sudoeste 0 -- -- 70
2020-03-09 20:00:00 8.6 6 Sudoeste 13 Oeste 0 -- -- 66
2020-03-09 19:00:00 12.4 6 Oeste 15 Noroeste 0 -- -- 53
2020-03-09 18:00:00 14.4 12 Oeste 21 Noroeste 0 -- -- 42
2020-03-09 17:00:00 14.6 12 Noroeste 26 Noroeste 0 -- -- 44
2020-03-09 16:00:00 14.7 12 Noroeste 24 Noroeste 0 -- -- 42
2020-03-09 15:00:00 14.4 13 Noroeste 21 Noroeste 0 -- -- 46
2020-03-09 14:00:00 12.5 9 Noroeste 22 Noroeste 0 -- -- 54
2020-03-09 13:00:00 11.3 7 Noroeste 15 Noroeste 0 -- -- 62
2020-03-09 12:00:00 10 9 Noroeste 19 Norte 0 -- -- 66
2020-03-09 11:00:00 8.3 6 Noroeste 18 Oeste 0 -- -- 73
2020-03-09 10:00:00 6.5 9 Oeste 15 Oeste 0 -- -- 79
2020-03-09 09:00:00 3.2 2 Este 13 Oeste 0 -- -- 89
2020-03-09 08:00:00 2.5 8 Oeste 15 Oeste 0 -- -- 89
2020-03-09 07:00:00 2 7 Oeste 10 Oeste 0 -- -- 88
2020-03-09 06:00:00 2.6 0 Calma 18 Noroeste 0 -- -- 85
2020-03-09 05:00:00 4.6 10 Noroeste 33 Oeste 0 -- -- 81
2020-03-09 04:00:00 5.3 19 Oeste 35 Oeste 0 -- -- 78
2020-03-09 03:00:00 5.8 18 Oeste 38 Oeste 0 -- -- 77
2020-03-09 02:00:00 6.6 21 Noroeste 39 Oeste 0 -- -- 74
2020-03-09 01:00:00 6.9 21 Oeste 36 Noroeste 0 -- -- 75
2020-03-09 00:00:00 7.3 19 Noroeste 33 Oeste 0 -- -- 86
2020-03-08 23:00:00 8.6 21 Oeste 39 Oeste 0 -- -- 84
2020-03-08 22:00:00 9.2 24 Oeste 35 Oeste 0 -- -- 80
2020-03-08 21:00:00 9.6 21 Oeste 34 Oeste 0 -- -- 81
2020-03-08 20:00:00 9.7 13 Oeste 19 Oeste 0 -- -- 81
2020-03-08 19:00:00 11.8 9 Sudoeste 23 Oeste 0 -- -- 75
2020-03-08 18:00:00 13.3 14 Oeste 30 Oeste 0 -- -- 67
2020-03-08 17:00:00 15 17 Oeste 29 Oeste 0 -- -- 59
2020-03-08 16:00:00 15 14 Oeste 29 Oeste 0 -- -- 56
2020-03-08 15:00:00 13.3 15 Oeste 26 Oeste 0 -- -- 58
2020-03-08 14:00:00 12.3 14 Oeste 23 Sudoeste 0 -- -- 65
2020-03-08 13:00:00 11.1 9 Sudoeste 21 Sudoeste 0 -- -- 68
2020-03-08 12:00:00 11 10 Sudoeste 20 Oeste 0 -- -- 72
2020-03-08 11:00:00 8.2 3 Nordeste 15 Sudoeste 0 -- -- 83
2020-03-08 10:00:00 5.9 6 Sudeste 12 Sudeste 0 -- -- 91
2020-03-08 09:00:00 3.4 6 Sudeste 15 Sur 0 -- -- 95
2020-03-08 08:00:00 0.6 4 Sur 10 Sur 0 -- -- 95
2020-03-08 07:00:00 0.8 3 Sudoeste 8 Sur 0 -- -- 94
2020-03-08 06:00:00 1.2 2 Sur 8 Sur 0 -- -- 93
2020-03-08 05:00:00 2.1 3 Sur 9 Sudeste 0 -- -- 90
2020-03-08 04:00:00 2.5 0 Calma 12 Sudoeste 0 -- -- 90
2020-03-08 03:00:00 3.7 4 Sudoeste 15 Sudoeste 0 -- -- 86
2020-03-08 02:00:00 4.8 5 Sudoeste 19 Sudoeste 0 -- -- 84
2020-03-08 01:00:00 3.6 4 Sur 10 Sur 0 -- -- 87
2020-03-08 00:00:00 4.2 5 Sur 13 Sudeste 0 -- -- 84